Waipahu, HI (96797)

8:24 AM HST on February 13, 2016 (GMT -1000)
Mililani District Park | | Change Station
CLOSE
Current Station
Personal Weather Station
Location: Mililani, HI
Elevation: 600 ft
Nearby Weather Stations

Elev 600 ft 21.44 °N, 158.02 °W | Updated 10 minutes ago

Clear
Clear
71.8 °F
Feels Like 70 °F
N
0.0
Wind Variable Wind from NW

Today
High -- | Low -- °F
--% Chance of Precip.
Yesterday
High -- | Low -- °F
Precip. -- in
Pressure 30.06 in
Visibility 10.0 miles
Clouds Clear
Heat Index 70 °F
Dew Point 67 °F
Humidity 86%
Rainfall 0.00 in
Snow Depth Not available.
7:03 AM 6:28 PM
Waxing Crescent, 33% visible
METAR PHHI 131758Z AUTO 24001KT 10SM CLR 19/18 A3008 RMK AO2 SLP179 T01880177 10192 20173 52013 $
Pressure 30.06 in
Visibility 10.0 miles
Clouds Clear
Heat Index 70 °F
Dew Point 67 °F
Humidity 86%
Rainfall 0.00 in
Snow Depth Not available.
7:03 AM 6:28 PM
Waxing Crescent, 33% visible
METAR PHHI 131758Z AUTO 24001KT 10SM CLR 19/18 A3008 RMK AO2 SLP179 T01880177 10192 20173 52013 $

10-Day Weather Forecast

Almanac

Astronomy

Feb. 13, 2016 Rise Set
Actual Time
Civil Twilight
Nautical Twilight
Astronomical Twilight
Moon
Length of Visible Light
Length of Day
Tomorrow will be .
, % of the Moon is Illuminated

Today's Extremes

State Highs State Lows

Community

WunderPhotos

Upload Photos

1,892,632 photos uploaded!

WunderBlog® & News

Nearby

Air Quality

  Air Quality AQ Index Pollutant
Not available.

Snow Depth

Station Depth Elevation

Earthquake Activity

City Distance Mag. Time & Date
Minimum magnitude displayed is 2.5.

Coastal Water Temperatures

Place Temperature

Stations

Nearby Weather Stations

Station Location Temp. Windchill Dew Point Humidity Wind Precip. Elev Updated Type
                   

Watches & Warnings

There are currently no watches in effect.